Time;durP1;ratioP1;P1;durP2;ratioP2;P2;SDS_P1;SDS_P2;PMS_P1;PMS_P2;Temp;Humidity;BMP_temperature;BMP_pressure;BME280_temperature;BME280_humidity;BME280_pressure;Samples;Min_cycle;Max_cycle;Signal;HPM_P1;HPM_P2
2023/06/28 00:01:22;;;;;;;6.63;2.63;;;;;;;;;;5096556;28;20185;-89
2023/06/28 00:03:49;;;;;;;4.93;2.47;;;;;;;;;;5096412;28;20197;-89
2023/06/28 00:06:15;;;;;;;6.40;2.40;;;;;;;;;;5096246;28;20174;-89
2023/06/28 00:08:41;;;;;;;3.73;2.20;;;;;;;;;;5083022;28;20186;-89
2023/06/28 00:11:08;;;;;;;7.00;2.60;;;;;;;;;;5076206;28;20235;-89
2023/06/28 00:13:36;;;;;;;5.00;2.40;;;;;;;;;;5094124;28;20208;-90
2023/06/28 00:16:02;;;;;;;5.67;2.43;;;;;;;;;;5081877;28;20186;-90
2023/06/28 00:18:32;;;;;;;4.70;2.07;;;;;;;;;;5079811;28;20182;-90
2023/06/28 00:20:59;;;;;;;4.93;2.20;;;;;;;;;;5087235;28;20189;-89
2023/06/28 00:23:25;;;;;;;4.80;2.47;;;;;;;;;;5077517;28;20202;-89
2023/06/28 00:25:51;;;;;;;5.97;2.10;;;;;;;;;;5077975;28;20179;-90
2023/06/28 00:28:17;;;;;;;4.57;2.40;;;;;;;;;;5080193;28;20190;-90
2023/06/28 00:30:43;;;;;;;6.53;2.93;;;;;;;;;;5079963;28;20214;-90
2023/06/28 00:33:09;;;;;;;7.83;2.80;;;;;;;;;;5080092;28;20214;-90
2023/06/28 00:35:38;;;;;;;6.07;2.67;;;;;;;;;;5079597;28;20175;-90
2023/06/28 00:38:04;;;;;;;6.90;2.20;;;;;;;;;;5087949;28;20263;-90
2023/06/28 00:40:30;;;;;;;4.03;1.93;;;;;;;;;;5109657;28;20185;-90
2023/06/28 00:42:56;;;;;;;4.10;2.03;;;;;;;;;;5083527;28;20185;-90
2023/06/28 00:45:25;;;;;;;5.30;2.07;;;;;;;;;;5084777;28;20194;-91
2023/06/28 00:47:51;;;;;;;4.23;2.27;;;;;;;;;;5078996;28;20183;-91
2023/06/28 00:50:17;;;;;;;4.30;2.50;;;;;;;;;;5094726;28;20182;-90
2023/06/28 00:52:46;;;;;;;4.43;1.90;;;;;;;;;;5080571;28;20202;-91
2023/06/28 00:55:13;;;;;;;4.13;1.93;;;;;;;;;;5094323;28;20250;-90
2023/06/28 00:57:39;;;;;;;4.63;2.20;;;;;;;;;;5079156;28;20183;-91
2023/06/28 01:00:11;;;;;;;4.97;2.23;;;;;;;;;;5080166;28;20270;-90
2023/06/28 01:02:41;;;;;;;3.83;2.10;;;;;;;;;;5078955;28;20185;-91
2023/06/28 01:05:08;;;;;;;5.77;2.17;;;;;;;;;;5095941;28;20190;-90
2023/06/28 01:07:35;;;;;;;5.10;2.27;;;;;;;;;;5079262;28;20179;-90
2023/06/28 01:10:02;;;;;;;5.03;2.30;;;;;;;;;;5077810;28;20234;-89
2023/06/28 01:12:28;;;;;;;6.20;2.30;;;;;;;;;;5094312;28;20232;-90
2023/06/28 01:14:54;;;;;;;4.40;2.10;;;;;;;;;;5087448;28;20180;-90
2023/06/28 01:17:20;;;;;;;5.53;2.17;;;;;;;;;;5069228;28;20193;-90
2023/06/28 01:19:46;;;;;;;4.30;2.00;;;;;;;;;;5080470;28;20190;-89
2023/06/28 01:22:20;;;;;;;5.47;2.20;;;;;;;;;;5077160;28;20446;-90
2023/06/28 01:24:49;;;;;;;4.33;2.27;;;;;;;;;;5078669;28;20216;-89
2023/06/28 01:27:15;;;;;;;5.37;2.30;;;;;;;;;;5077880;28;20198;-91
2023/06/28 01:29:46;;;;;;;4.83;2.30;;;;;;;;;;5086176;28;20187;-91
2023/06/28 01:32:12;;;;;;;5.27;2.00;;;;;;;;;;5090136;28;20284;-90
2023/06/28 01:34:38;;;;;;;3.70;2.00;;;;;;;;;;5080220;28;20183;-90
2023/06/28 01:37:08;;;;;;;5.27;2.23;;;;;;;;;;5074184;28;20183;-90
2023/06/28 01:39:34;;;;;;;5.90;2.30;;;;;;;;;;5090672;28;20178;-90
2023/06/28 01:42:00;;;;;;;5.50;2.27;;;;;;;;;;5097322;28;20233;-90
2023/06/28 01:44:26;;;;;;;4.80;2.27;;;;;;;;;;5088403;28;20182;-90
2023/06/28 01:46:55;;;;;;;8.57;2.63;;;;;;;;;;5091543;28;20185;-90
2023/06/28 01:49:22;;;;;;;4.23;2.07;;;;;;;;;;5054490;28;20195;-90
2023/06/28 01:51:48;;;;;;;6.23;2.40;;;;;;;;;;5071589;28;20192;-91
2023/06/28 01:54:17;;;;;;;5.80;2.20;;;;;;;;;;5074435;28;20189;-92
2023/06/28 01:56:43;;;;;;;4.63;2.40;;;;;;;;;;5089207;28;20247;-91
2023/06/28 01:59:09;;;;;;;8.57;2.90;;;;;;;;;;5073673;28;20187;-91
2023/06/28 02:01:38;;;;;;;8.27;2.90;;;;;;;;;;5088145;28;20188;-91
2023/06/28 02:04:07;;;;;;;6.23;3.27;;;;;;;;;;5090452;28;20183;-91
2023/06/28 02:06:33;;;;;;;4.97;2.40;;;;;;;;;;5092062;28;20183;-91
2023/06/28 02:09:03;;;;;;;6.37;2.70;;;;;;;;;;5098301;28;20209;-90
2023/06/28 02:11:29;;;;;;;8.03;3.10;;;;;;;;;;5096834;28;20268;-91
2023/06/28 02:13:55;;;;;;;6.97;2.60;;;;;;;;;;5101885;28;20197;-91
2023/06/28 02:16:23;;;;;;;5.93;2.90;;;;;;;;;;5099645;27;20177;-91
2023/06/28 02:18:51;;;;;;;4.70;2.87;;;;;;;;;;5107189;27;20181;-91
2023/06/28 02:21:17;;;;;;;8.27;3.13;;;;;;;;;;5104974;28;20224;-92
2023/06/28 02:23:45;;;;;;;8.37;2.60;;;;;;;;;;5103291;27;20216;-91
2023/06/28 02:26:14;;;;;;;6.00;2.60;;;;;;;;;;5083655;27;20189;-91
2023/06/28 02:28:48;;;;;;;4.47;2.73;;;;;;;;;;5107420;27;20181;-91
2023/06/28 02:31:30;;;;;;;;;;;;;;;;;;;;;
2023/06/28 02:33:59;;;;;;;5.57;3.10;;;;;;;;;;5117105;27;20199;-91
2023/06/28 02:36:29;;;;;;;5.83;2.97;;;;;;;;;;5089912;27;20197;-92
2023/06/28 02:38:55;;;;;;;5.67;2.80;;;;;;;;;;5092353;28;20194;-91
2023/06/28 02:41:23;;;;;;;7.70;3.20;;;;;;;;;;5109573;28;20190;-91
2023/06/28 02:43:52;;;;;;;7.33;3.20;;;;;;;;;;5093951;28;20186;-91
2023/06/28 02:46:18;;;;;;;6.17;3.10;;;;;;;;;;5076768;28;20216;-90
2023/06/28 02:48:44;;;;;;;6.00;3.50;;;;;;;;;;5095644;28;20178;-88
2023/06/28 02:51:31;;;;;;;7.63;3.50;;;;;;;;;;5080999;28;20178;-88
2023/06/28 02:53:57;;;;;;;6.53;3.27;;;;;;;;;;5102781;28;20218;-88
2023/06/28 02:56:25;;;;;;;4.47;3.27;;;;;;;;;;5097148;28;20189;-87
2023/06/28 02:58:51;;;;;;;8.93;3.40;;;;;;;;;;5060075;28;20178;-89
2023/06/28 03:01:19;;;;;;;6.90;3.17;;;;;;;;;;5076802;28;20273;-88
2023/06/28 03:03:49;;;;;;;6.10;2.97;;;;;;;;;;5076541;28;20190;-88
2023/06/28 03:06:16;;;;;;;7.17;2.80;;;;;;;;;;5092028;28;20193;-88
2023/06/28 03:08:42;;;;;;;5.40;3.00;;;;;;;;;;5079722;28;20182;-89
2023/06/28 03:11:08;;;;;;;4.87;2.60;;;;;;;;;;5087570;28;20238;-89
2023/06/28 03:13:37;;;;;;;4.60;2.37;;;;;;;;;;5084402;28;20201;-89
2023/06/28 03:16:03;;;;;;;4.20;2.30;;;;;;;;;;5083656;28;20193;-88
2023/06/28 03:18:29;;;;;;;6.47;2.30;;;;;;;;;;5077211;28;20182;-88
2023/06/28 03:20:55;;;;;;;5.23;2.40;;;;;;;;;;5080521;28;20266;-88
2023/06/28 03:23:22;;;;;;;5.73;2.33;;;;;;;;;;5075857;28;20199;-89
2023/06/28 03:25:52;;;;;;;5.17;2.20;;;;;;;;;;5076654;28;20182;-88
2023/06/28 03:28:19;;;;;;;5.87;2.30;;;;;;;;;;5092161;28;20188;-88
2023/06/28 03:30:45;;;;;;;6.67;2.50;;;;;;;;;;5089996;28;20256;-88
2023/06/28 03:33:14;;;;;;;4.73;2.00;;;;;;;;;;5078322;28;20207;-88
2023/06/28 03:35:40;;;;;;;3.73;2.17;;;;;;;;;;5076204;28;20229;-88
2023/06/28 03:38:06;;;;;;;4.87;2.30;;;;;;;;;;5075711;28;20178;-88
2023/06/28 03:40:32;;;;;;;7.80;2.00;;;;;;;;;;5075598;28;20178;-87
2023/06/28 03:43:01;;;;;;;4.07;2.00;;;;;;;;;;5075215;28;20191;-88
2023/06/28 03:45:28;;;;;;;5.00;2.20;;;;;;;;;;5076344;28;20190;-88
2023/06/28 03:47:55;;;;;;;4.60;2.40;;;;;;;;;;5075520;28;20187;-87
2023/06/28 03:50:21;;;;;;;4.83;2.50;;;;;;;;;;5076310;28;20191;-88
2023/06/28 03:52:49;;;;;;;3.73;2.50;;;;;;;;;;5077679;28;20224;-87
2023/06/28 03:55:16;;;;;;;4.20;2.53;;;;;;;;;;5075715;28;20244;-88
2023/06/28 03:57:45;;;;;;;6.47;3.10;;;;;;;;;;5075754;28;20319;-88
2023/06/28 04:00:21;;;;;;;7.60;3.00;;;;;;;;;;5084448;28;20181;-88
2023/06/28 04:02:47;;;;;;;6.27;3.40;;;;;;;;;;5096402;28;20178;-88
2023/06/28 04:05:13;;;;;;;6.20;3.03;;;;;;;;;;5097322;28;20182;-88
2023/06/28 04:07:41;;;;;;;7.13;3.20;;;;;;;;;;5090747;28;20224;-87
2023/06/28 04:10:08;;;;;;;5.87;3.40;;;;;;;;;;5077683;28;20230;-88
2023/06/28 04:12:34;;;;;;;5.37;3.90;;;;;;;;;;5098486;28;20213;-87
2023/06/28 04:15:01;;;;;;;8.67;4.20;;;;;;;;;;5092959;28;20178;-88
2023/06/28 04:17:27;;;;;;;9.63;4.57;;;;;;;;;;5079054;28;20182;-87
2023/06/28 04:19:53;;;;;;;7.07;4.47;;;;;;;;;;5084459;28;20185;-88
2023/06/28 04:22:19;;;;;;;7.00;4.67;;;;;;;;;;5088094;28;20203;-88
2023/06/28 04:24:47;;;;;;;11.23;4.40;;;;;;;;;;5080151;28;20193;-89
2023/06/28 04:27:14;;;;;;;7.07;4.40;;;;;;;;;;5080881;28;20281;-88
2023/06/28 04:29:42;;;;;;;8.80;4.67;;;;;;;;;;5098509;28;20263;-87
2023/06/28 04:32:23;;;;;;;6.97;4.17;;;;;;;;;;5084110;28;20209;-87
2023/06/28 04:34:53;;;;;;;9.57;4.30;;;;;;;;;;5089432;28;20174;-87
2023/06/28 04:37:22;;;;;;;7.53;4.50;;;;;;;;;;5099316;28;20174;-87
2023/06/28 04:39:49;;;;;;;6.95;3.30;;;;;;;;;;5093416;28;20439;-86
2023/06/28 04:42:15;;;;;;;7.63;4.10;;;;;;;;;;5078265;28;20409;-87
2023/06/28 04:44:43;;;;;;;6.20;3.97;;;;;;;;;;5079529;28;20175;-87
2023/06/28 04:47:15;;;;;;;8.60;4.00;;;;;;;;;;5077877;28;20205;-86
2023/06/28 04:49:44;;;;;;;6.67;3.97;;;;;;;;;;5086725;27;20177;-87
2023/06/28 04:52:12;;;;;;;6.37;3.63;;;;;;;;;;5099009;28;20197;-86
2023/06/28 04:54:47;;;;;;;9.50;4.07;;;;;;;;;;5098641;28;20169;-87
2023/06/28 04:57:15;;;;;;;7.33;3.87;;;;;;;;;;5090019;28;20182;-87
2023/06/28 04:59:42;;;;;;;6.90;3.80;;;;;;;;;;5078635;28;20173;-88
2023/06/28 05:02:09;;;;;;;6.17;4.17;;;;;;;;;;5113660;27;20173;-86
2023/06/28 05:04:35;;;;;;;6.63;4.07;;;;;;;;;;5119119;27;20173;-87
2023/06/28 05:07:05;;;;;;;6.50;4.40;;;;;;;;;;5119533;27;20169;-87
2023/06/28 05:09:32;;;;;;;6.87;4.33;;;;;;;;;;5112976;27;20286;-87
2023/06/28 05:12:02;;;;;;;7.33;4.37;;;;;;;;;;5077699;28;20191;-87
2023/06/28 05:14:28;;;;;;;8.13;4.33;;;;;;;;;;5060764;28;20183;-87
2023/06/28 05:16:55;;;;;;;7.77;4.40;;;;;;;;;;5100212;28;20170;-87
2023/06/28 05:19:22;;;;;;;7.67;4.77;;;;;;;;;;5067221;28;20179;-87
2023/06/28 05:21:50;;;;;;;8.37;4.53;;;;;;;;;;5057915;28;20225;-87
2023/06/28 05:24:17;;;;;;;9.77;4.93;;;;;;;;;;5060687;28;20189;-87
2023/06/28 05:26:46;;;;;;;8.27;4.47;;;;;;;;;;5077776;28;20182;-87
2023/06/28 05:29:12;;;;;;;10.20;5.30;;;;;;;;;;5072477;28;20204;-87
2023/06/28 05:31:38;;;;;;;7.30;5.17;;;;;;;;;;5078081;28;20179;-87
2023/06/28 05:34:07;;;;;;;9.83;5.67;;;;;;;;;;5072352;28;20234;-87
2023/06/28 05:36:33;;;;;;;10.60;5.30;;;;;;;;;;5068921;28;20175;-86
2023/06/28 05:38:59;;;;;;;10.57;6.03;;;;;;;;;;5074741;28;20186;-87
2023/06/28 05:41:26;;;;;;;10.43;6.13;;;;;;;;;;5069488;28;20211;-83
2023/06/28 05:43:52;;;;;;;9.00;5.37;;;;;;;;;;5073170;28;20190;-84
2023/06/28 05:46:18;;;;;;;10.87;5.83;;;;;;;;;;5059528;28;20214;-83
2023/06/28 05:48:46;;;;;;;9.13;6.03;;;;;;;;;;5067389;28;20199;-84
2023/06/28 05:51:14;;;;;;;8.97;5.80;;;;;;;;;;5074920;28;20211;-85
2023/06/28 05:53:41;;;;;;;9.97;5.97;;;;;;;;;;5073558;28;20206;-81
2023/06/28 05:56:07;;;;;;;11.97;6.00;;;;;;;;;;5057025;28;20262;-81
2023/06/28 05:58:33;;;;;;;12.77;6.17;;;;;;;;;;5059187;28;20185;-81
2023/06/28 06:01:00;;;;;;;9.07;5.83;;;;;;;;;;5057891;28;20182;-81
2023/06/28 06:03:26;;;;;;;8.93;5.73;;;;;;;;;;5060133;28;20191;-81
2023/06/28 06:05:53;;;;;;;12.27;5.83;;;;;;;;;;5058063;28;20190;-81
2023/06/28 06:08:19;;;;;;;11.23;6.13;;;;;;;;;;5077146;28;20204;-81
2023/06/28 06:10:46;;;;;;;9.50;5.23;;;;;;;;;;5075726;28;20238;-81
2023/06/28 06:13:12;;;;;;;9.20;5.23;;;;;;;;;;5058573;28;20301;-81
2023/06/28 06:15:38;;;;;;;8.33;5.40;;;;;;;;;;5066908;28;20232;-81
2023/06/28 06:18:04;;;;;;;10.67;5.67;;;;;;;;;;5056739;28;20191;-81
2023/06/28 06:20:31;;;;;;;12.13;5.87;;;;;;;;;;5065604;28;20179;-81
2023/06/28 06:22:57;;;;;;;11.87;6.00;;;;;;;;;;5060788;28;20210;-81
2023/06/28 06:25:24;;;;;;;15.30;6.90;;;;;;;;;;5066350;28;20183;-81
2023/06/28 06:27:50;;;;;;;14.07;6.70;;;;;;;;;;5053983;28;20187;-81
2023/06/28 06:30:16;;;;;;;11.53;7.00;;;;;;;;;;5063000;28;20193;-80
2023/06/28 06:32:42;;;;;;;11.77;6.90;;;;;;;;;;5070032;28;20210;-81
2023/06/28 06:35:08;;;;;;;11.63;7.13;;;;;;;;;;5064563;28;20343;-81
2023/06/28 06:37:34;;;;;;;11.53;7.17;;;;;;;;;;5065533;28;20199;-81
2023/06/28 06:40:01;;;;;;;15.90;7.77;;;;;;;;;;5055467;28;20187;-81
2023/06/28 06:42:27;;;;;;;11.67;7.70;;;;;;;;;;5056886;28;20183;-80
2023/06/28 06:44:53;;;;;;;16.37;7.17;;;;;;;;;;5074148;28;20183;-82
2023/06/28 06:47:19;;;;;;;16.07;7.33;;;;;;;;;;5049972;28;20194;-82
2023/06/28 06:49:45;;;;;;;12.50;7.83;;;;;;;;;;5059183;28;20273;-82
2023/06/28 06:52:11;;;;;;;11.27;7.80;;;;;;;;;;5068354;28;20211;-82
2023/06/28 06:54:37;;;;;;;13.37;7.87;;;;;;;;;;5063828;28;20178;-81
2023/06/28 06:57:03;;;;;;;15.87;8.33;;;;;;;;;;5052892;28;20186;-81
2023/06/28 06:59:32;;;;;;;15.23;7.80;;;;;;;;;;5059863;28;20198;-82
2023/06/28 07:01:58;;;;;;;15.80;8.07;;;;;;;;;;5090768;28;20184;-81
2023/06/28 07:04:24;;;;;;;18.00;8.60;;;;;;;;;;5061450;28;20209;-81
2023/06/28 07:06:50;;;;;;;13.47;8.50;;;;;;;;;;5073138;28;20214;-81
2023/06/28 07:09:17;;;;;;;15.80;7.97;;;;;;;;;;5063147;28;20181;-83
2023/06/28 07:11:43;;;;;;;14.97;8.73;;;;;;;;;;5084625;28;20202;-83
2023/06/28 07:14:09;;;;;;;13.93;8.70;;;;;;;;;;5078245;28;20210;-83
2023/06/28 07:16:35;;;;;;;16.80;8.83;;;;;;;;;;5093365;28;20198;-83
2023/06/28 07:19:02;;;;;;;18.47;9.40;;;;;;;;;;5108319;27;20172;-83
2023/06/28 07:21:28;;;;;;;15.07;9.03;;;;;;;;;;5116280;28;20200;-82
2023/06/28 07:23:54;;;;;;;18.53;9.40;;;;;;;;;;5116388;28;20273;-82
2023/06/28 07:26:21;;;;;;;13.90;9.80;;;;;;;;;;5116231;27;20181;-83
2023/06/28 07:28:47;;;;;;;14.63;8.70;;;;;;;;;;5081743;28;20193;-83
2023/06/28 07:31:13;;;;;;;13.23;9.27;;;;;;;;;;5079008;28;20189;-83
2023/06/28 07:33:40;;;;;;;14.53;9.80;;;;;;;;;;5096156;28;20209;-83
2023/06/28 07:36:06;;;;;;;14.87;9.93;;;;;;;;;;5102297;28;20166;-82
2023/06/28 07:38:33;;;;;;;15.87;9.80;;;;;;;;;;5094070;27;20187;-82
2023/06/28 07:40:59;;;;;;;16.03;9.47;;;;;;;;;;5094052;28;20181;-83
2023/06/28 07:43:25;;;;;;;15.03;9.80;;;;;;;;;;5087427;28;20202;-83
2023/06/28 07:45:52;;;;;;;15.90;9.57;;;;;;;;;;5078567;28;20217;-83
2023/06/28 07:48:18;;;;;;;15.07;9.97;;;;;;;;;;5097659;28;20190;-83
2023/06/28 07:50:44;;;;;;;17.43;9.67;;;;;;;;;;5096398;28;20197;-83
2023/06/28 07:53:10;;;;;;;18.00;9.60;;;;;;;;;;5084080;28;20304;-83
2023/06/28 07:55:37;;;;;;;19.07;9.60;;;;;;;;;;5085161;28;20269;-83
2023/06/28 07:58:03;;;;;;;18.63;9.73;;;;;;;;;;5088784;28;20265;-83
2023/06/28 08:00:30;;;;;;;21.03;9.70;;;;;;;;;;5083559;28;20178;-83
2023/06/28 08:02:57;;;;;;;15.90;9.73;;;;;;;;;;5082182;28;20201;-83
2023/06/28 08:05:23;;;;;;;19.83;10.10;;;;;;;;;;5079618;28;20220;-83
2023/06/28 08:07:49;;;;;;;15.50;8.90;;;;;;;;;;5101389;28;20182;-83
2023/06/28 08:10:15;;;;;;;15.93;9.50;;;;;;;;;;5076551;28;20231;-83
2023/06/28 08:12:41;;;;;;;19.73;10.00;;;;;;;;;;5061759;28;20215;-83
2023/06/28 08:15:08;;;;;;;12.50;9.33;;;;;;;;;;5067803;28;20264;-82
2023/06/28 08:17:34;;;;;;;16.10;9.60;;;;;;;;;;5081894;28;20171;-82
2023/06/28 08:20:03;;;;;;;15.03;9.23;;;;;;;;;;5074522;28;20180;-82
2023/06/28 08:22:29;;;;;;;17.13;9.37;;;;;;;;;;5059604;28;20233;-82
2023/06/28 08:24:55;;;;;;;14.70;8.80;;;;;;;;;;5056636;28;20179;-82
2023/06/28 08:27:21;;;;;;;11.47;8.43;;;;;;;;;;5062604;28;20217;-82
2023/06/28 08:29:47;;;;;;;13.50;8.57;;;;;;;;;;5078916;28;20248;-82
2023/06/28 08:32:13;;;;;;;18.93;8.57;;;;;;;;;;5081993;28;20202;-83
2023/06/28 08:34:40;;;;;;;15.37;8.43;;;;;;;;;;5080267;28;20178;-82
2023/06/28 08:37:06;;;;;;;16.37;8.93;;;;;;;;;;5081928;28;20235;-83
2023/06/28 08:39:32;;;;;;;18.37;9.00;;;;;;;;;;5056391;28;20254;-83
2023/06/28 08:42:01;;;;;;;18.67;9.37;;;;;;;;;;5051720;28;20198;-82
2023/06/28 08:44:30;;;;;;;13.60;8.80;;;;;;;;;;5073116;28;20182;-82
2023/06/28 08:46:56;;;;;;;17.07;8.97;;;;;;;;;;5057462;28;20213;-82
2023/06/28 08:49:22;;;;;;;14.70;8.53;;;;;;;;;;5072602;28;20178;-82
2023/06/28 08:51:48;;;;;;;17.23;8.93;;;;;;;;;;5072652;28;20182;-82
2023/06/28 08:54:15;;;;;;;15.83;8.50;;;;;;;;;;5065032;28;20197;-82
2023/06/28 08:56:41;;;;;;;17.17;8.10;;;;;;;;;;5079611;28;20195;-82
2023/06/28 08:59:08;;;;;;;16.93;8.37;;;;;;;;;;5081170;28;20210;-83
2023/06/28 09:01:34;;;;;;;15.87;8.20;;;;;;;;;;5074466;28;20277;-82
2023/06/28 09:04:02;;;;;;;13.63;8.37;;;;;;;;;;5070776;28;20175;-82
2023/06/28 09:06:29;;;;;;;14.20;8.03;;;;;;;;;;5058352;28;20191;-83
2023/06/28 09:08:55;;;;;;;15.80;7.63;;;;;;;;;;5083025;28;20187;-83
2023/06/28 09:11:25;;;;;;;14.07;8.13;;;;;;;;;;5111178;27;20255;-83
2023/06/28 09:13:51;;;;;;;13.53;8.67;;;;;;;;;;5075829;28;20239;-83
2023/06/28 09:16:17;;;;;;;11.60;7.87;;;;;;;;;;5084985;28;20182;-82
2023/06/28 09:18:46;;;;;;;15.10;8.10;;;;;;;;;;5078714;28;20173;-83
2023/06/28 09:21:12;;;;;;;14.77;7.47;;;;;;;;;;5091162;28;20182;-83
2023/06/28 09:23:38;;;;;;;20.50;8.40;;;;;;;;;;5089238;28;20502;-83
2023/06/28 09:26:10;;;;;;;16.20;8.00;;;;;;;;;;5098025;28;20231;-83
2023/06/28 09:28:36;;;;;;;16.17;7.47;;;;;;;;;;5079406;28;20332;-82
2023/06/28 09:31:06;;;;;;;12.70;7.83;;;;;;;;;;5077595;28;20265;-83
2023/06/28 09:33:32;;;;;;;14.47;8.07;;;;;;;;;;5080577;28;20292;-83
2023/06/28 09:35:59;;;;;;;20.47;8.40;;;;;;;;;;5086730;28;20212;-83
2023/06/28 09:38:25;;;;;;;14.97;8.50;;;;;;;;;;5077291;28;20190;-83
2023/06/28 09:40:58;;;;;;;17.33;8.10;;;;;;;;;;5093515;28;20183;-82
2023/06/28 09:43:25;;;;;;;15.47;8.77;;;;;;;;;;5078238;28;20231;-82
2023/06/28 09:45:54;;;;;;;18.07;8.40;;;;;;;;;;5078505;28;20186;-82
2023/06/28 09:48:25;;;;;;;20.60;8.63;;;;;;;;;;5114822;28;20181;-82
2023/06/28 09:50:52;;;;;;;17.60;8.40;;;;;;;;;;5088487;27;20177;-83
2023/06/28 09:53:19;;;;;;;18.33;8.60;;;;;;;;;;5086530;27;20232;-82
2023/06/28 09:55:49;;;;;;;18.47;8.53;;;;;;;;;;5096019;28;20706;-82
2023/06/28 09:58:15;;;;;;;14.40;8.60;;;;;;;;;;5089659;28;20189;-82
2023/06/28 10:00:42;;;;;;;12.57;8.30;;;;;;;;;;5082311;28;20224;-82
2023/06/28 10:03:09;;;;;;;15.10;8.03;;;;;;;;;;5088934;27;20181;-82
2023/06/28 10:05:37;;;;;;;14.40;7.70;;;;;;;;;;5078276;28;20273;-82
2023/06/28 10:08:04;;;;;;;10.77;7.63;;;;;;;;;;5080862;28;20259;-82
2023/06/28 10:10:31;;;;;;;15.70;8.57;;;;;;;;;;5077298;28;20299;-82
2023/06/28 10:12:58;;;;;;;13.17;8.30;;;;;;;;;;5077140;28;20211;-83
2023/06/28 10:15:25;;;;;;;13.70;8.03;;;;;;;;;;5096174;28;20227;-82
2023/06/28 10:17:51;;;;;;;15.03;8.63;;;;;;;;;;5084605;28;20170;-82
2023/06/28 10:20:20;;;;;;;14.27;8.67;;;;;;;;;;5085934;28;20185;-83
2023/06/28 10:22:46;;;;;;;17.03;8.47;;;;;;;;;;5089576;28;20205;-83
2023/06/28 10:25:13;;;;;;;15.47;9.00;;;;;;;;;;5083318;28;20190;-83
2023/06/28 10:27:39;;;;;;;15.43;8.13;;;;;;;;;;5077253;28;20182;-82
2023/06/28 10:30:05;;;;;;;14.87;9.07;;;;;;;;;;5079997;28;20194;-82
2023/06/28 10:32:32;;;;;;;16.90;9.50;;;;;;;;;;5097076;28;20213;-83
2023/06/28 10:34:59;;;;;;;16.83;8.87;;;;;;;;;;5098592;28;20207;-82
2023/06/28 10:37:25;;;;;;;13.67;8.73;;;;;;;;;;5097157;28;20184;-82
2023/06/28 10:39:51;;;;;;;18.57;9.70;;;;;;;;;;5083951;28;20289;-82
2023/06/28 10:42:18;;;;;;;14.60;9.67;;;;;;;;;;5097057;28;20178;-83
2023/06/28 10:44:53;;;;;;;19.07;9.93;;;;;;;;;;5095885;28;20234;-83
2023/06/28 10:47:20;;;;;;;15.47;9.63;;;;;;;;;;5096819;28;20205;-82
2023/06/28 10:50:05;;;;;;;13.33;9.27;;;;;;;;;;5068841;28;20187;-82
2023/06/28 10:52:31;;;;;;;18.43;8.90;;;;;;;;;;5075563;28;20209;-82
2023/06/28 10:54:57;;;;;;;15.13;9.25;;;;;;;;;;5059840;28;20453;-83
2023/06/28 10:57:37;;;;;;;16.63;10.00;;;;;;;;;;5090746;28;20441;-81
2023/06/28 11:00:05;;;;;;;11.93;9.07;;;;;;;;;;5077533;28;20182;-81
2023/06/28 11:02:51;;;;;;;15.40;9.47;;;;;;;;;;5076946;28;20213;-82
2023/06/28 11:05:37;;;;;;;15.00;9.10;;;;;;;;;;5075810;28;20186;-82
2023/06/28 11:08:10;;;;;;;14.27;8.57;;;;;;;;;;5076001;28;20228;-82
2023/06/28 11:10:37;;;;;;;16.03;9.20;;;;;;;;;;5075362;28;20229;-82
2023/06/28 11:13:03;;;;;;;15.93;9.70;;;;;;;;;;5075831;28;20206;-82
2023/06/28 11:15:29;;;;;;;13.90;9.60;;;;;;;;;;5059876;28;20175;-88
2023/06/28 11:18:06;;;;;;;14.13;9.50;;;;;;;;;;5059558;28;20204;-81
2023/06/28 11:20:33;;;;;;;19.08;10.15;;;;;;;;;;5076563;28;20465;-82
2023/06/28 11:22:59;;;;;;;13.93;10.03;;;;;;;;;;5079650;28;20194;-82
2023/06/28 11:25:28;;;;;;;14.77;9.57;;;;;;;;;;5084264;28;20245;-82
2023/06/28 11:27:57;;;;;;;16.97;9.70;;;;;;;;;;5076400;28;20194;-82
2023/06/28 11:30:43;;;;;;;15.33;9.77;;;;;;;;;;5076333;28;20182;-82
2023/06/28 11:33:11;;;;;;;11.30;9.27;;;;;;;;;;5076112;28;20213;-82
2023/06/28 11:35:37;;;;;;;13.57;9.33;;;;;;;;;;5076050;28;20257;-82
2023/06/28 11:38:04;;;;;;;14.00;9.53;;;;;;;;;;5092936;28;20265;-82
2023/06/28 11:40:30;;;;;;;13.73;10.77;;;;;;;;;;5094336;28;20193;-82
2023/06/28 11:42:56;;;;;;;14.20;9.93;;;;;;;;;;5080140;28;20193;-81
2023/06/28 11:45:22;;;;;;;16.23;9.83;;;;;;;;;;5079563;28;20209;-81
2023/06/28 11:47:49;;;;;;;16.30;10.57;;;;;;;;;;5097399;22;20238;-81
2023/06/28 11:50:15;;;;;;;13.90;10.47;;;;;;;;;;5085952;28;20197;-78
2023/06/28 11:52:46;;;;;;;18.73;10.50;;;;;;;;;;5114465;28;20258;-78
2023/06/28 11:55:14;;;;;;;17.53;10.47;;;;;;;;;;5113772;28;20178;-78
2023/06/28 11:57:45;;;;;;;17.03;10.40;;;;;;;;;;5113164;28;20173;-79
2023/06/28 12:00:12;;;;;;;17.23;11.33;;;;;;;;;;5115827;28;20210;-79
2023/06/28 12:02:49;;;;;;;18.70;11.30;;;;;;;;;;5116399;28;20226;-79
2023/06/28 12:05:17;;;;;;;14.57;10.50;;;;;;;;;;5111826;28;20247;-79
2023/06/28 12:07:45;;;;;;;17.97;11.23;;;;;;;;;;5114104;28;20166;-79
2023/06/28 12:10:11;;;;;;;19.93;10.97;;;;;;;;;;5096211;28;20171;-79
2023/06/28 12:12:38;;;;;;;17.50;10.87;;;;;;;;;;5100742;28;20220;-80
2023/06/28 12:15:05;;;;;;;15.70;10.77;;;;;;;;;;5074887;28;20182;-79
2023/06/28 12:17:44;;;;;;;13.90;10.13;;;;;;;;;;5113981;28;20227;-80
2023/06/28 12:20:14;;;;;;;17.83;11.10;;;;;;;;;;5108554;27;20273;-79
2023/06/28 12:22:44;;;;;;;17.27;10.17;;;;;;;;;;5104074;28;20190;-79
2023/06/28 12:25:10;;;;;;;14.27;9.37;;;;;;;;;;5098036;28;20266;-79
2023/06/28 12:27:38;;;;;;;14.10;10.07;;;;;;;;;;5099527;28;20179;-79
2023/06/28 12:30:13;;;;;;;14.97;9.50;;;;;;;;;;5083148;28;20222;-79
2023/06/28 12:32:43;;;;;;;14.83;10.33;;;;;;;;;;5099888;28;20201;-83
2023/06/28 12:35:20;;;;;;;16.20;9.63;;;;;;;;;;5099858;28;20178;-83
2023/06/28 12:37:52;;;;;;;16.17;10.07;;;;;;;;;;5080428;28;20182;-83
2023/06/28 12:40:18;;;;;;;14.67;10.50;;;;;;;;;;5093930;28;20197;-83
2023/06/28 12:42:44;;;;;;;14.23;9.90;;;;;;;;;;5099078;28;20186;-83
2023/06/28 12:45:12;;;;;;;15.70;10.63;;;;;;;;;;5087449;28;20193;-83
2023/06/28 12:47:38;;;;;;;19.43;11.20;;;;;;;;;;5098461;27;20190;-79
2023/06/28 12:50:04;;;;;;;17.23;10.70;;;;;;;;;;5119431;27;20205;-79
2023/06/28 12:52:30;;;;;;;15.03;9.77;;;;;;;;;;5102817;27;20228;-78
2023/06/28 12:54:57;;;;;;;14.97;10.47;;;;;;;;;;5112594;28;20217;-80
2023/06/28 12:57:26;;;;;;;15.23;10.20;;;;;;;;;;5096814;27;20189;-78
2023/06/28 12:59:52;;;;;;;17.57;11.17;;;;;;;;;;5118811;27;20181;-78
2023/06/28 13:02:18;;;;;;;17.73;10.87;;;;;;;;;;5110905;28;20188;-79
2023/06/28 13:04:44;;;;;;;16.95;12.00;;;;;;;;;;5134323;27;20432;-89
2023/06/28 13:07:11;;;;;;;16.50;10.90;;;;;;;;;;5099808;27;20182;-90
2023/06/28 13:09:37;;;;;;;17.65;11.18;;;;;;;;;;5113866;27;20231;-88
2023/06/28 13:12:04;;;;;;;19.13;11.68;;;;;;;;;;5112186;27;20192;-90
2023/06/28 13:14:30;;;;;;;16.85;11.80;;;;;;;;;;5096854;27;20177;-89
2023/06/28 13:16:59;;;;;;;15.20;10.75;;;;;;;;;;5112803;27;20268;-89
2023/06/28 13:19:25;;;;;;;17.45;11.30;;;;;;;;;;5084390;28;20280;-90
2023/06/28 13:21:51;;;;;;;17.00;11.93;;;;;;;;;;5097941;27;20204;-80
2023/06/28 13:24:24;;;;;;;16.65;12.45;;;;;;;;;;5110307;27;20199;-84
2023/06/28 13:26:51;;;;;;;16.48;11.55;;;;;;;;;;5110158;27;20182;-84
2023/06/28 13:29:18;;;;;;;18.35;11.80;;;;;;;;;;5094747;27;20192;-83
2023/06/28 13:31:46;;;;;;;16.33;10.82;;;;;;;;;;5095969;27;20193;-83
2023/06/28 13:34:13;;;;;;;18.23;12.93;;;;;;;;;;5110224;27;20295;-84
2023/06/28 13:36:39;;;;;;;20.45;11.77;;;;;;;;;;5109231;27;20173;-84
2023/06/28 13:39:05;;;;;;;17.70;12.70;;;;;;;;;;5101526;22;20233;-80
2023/06/28 13:41:31;;;;;;;15.07;12.38;;;;;;;;;;5099160;27;20185;-80
2023/06/28 13:43:57;;;;;;;18.77;12.32;;;;;;;;;;5082851;27;20193;-80
2023/06/28 13:46:23;;;;;;;18.08;12.80;;;;;;;;;;5079179;27;20188;-81
2023/06/28 13:48:49;;;;;;;18.95;12.77;;;;;;;;;;5097810;27;20189;-80
2023/06/28 13:51:15;;;;;;;16.33;12.70;;;;;;;;;;5085832;27;20189;-81
2023/06/28 13:53:41;;;;;;;16.50;13.45;;;;;;;;;;5072809;27;20216;-80
2023/06/28 13:56:07;;;;;;;16.17;12.95;;;;;;;;;;5094243;27;20185;-81
2023/06/28 13:58:34;;;;;;;17.60;13.45;;;;;;;;;;5115062;27;20186;-81
2023/06/28 14:01:00;;;;;;;18.80;13.07;;;;;;;;;;5105218;27;20214;-80
2023/06/28 14:03:26;;;;;;;16.75;11.63;;;;;;;;;;5099657;27;20193;-80
2023/06/28 14:05:54;;;;;;;17.25;13.27;;;;;;;;;;5117980;27;20249;-80
2023/06/28 14:08:20;;;;;;;18.27;12.77;;;;;;;;;;5115737;27;20190;-80
2023/06/28 14:10:47;;;;;;;16.55;12.35;;;;;;;;;;5118040;27;20188;-81
2023/06/28 14:13:13;;;;;;;19.90;13.13;;;;;;;;;;5117417;27;20231;-81
2023/06/28 14:15:40;;;;;;;18.80;13.05;;;;;;;;;;5096479;28;20185;-80
2023/06/28 14:18:06;;;;;;;18.27;13.02;;;;;;;;;;5104327;27;20181;-81
2023/06/28 14:20:32;;;;;;;19.75;13.25;;;;;;;;;;5117787;27;20221;-81
2023/06/28 14:22:58;;;;;;;16.60;11.77;;;;;;;;;;5097888;27;20193;-81
2023/06/28 14:25:24;;;;;;;14.98;12.80;;;;;;;;;;5134546;27;20196;-81
2023/06/28 14:27:50;;;;;;;16.00;12.55;;;;;;;;;;5083805;28;20190;-83
2023/06/28 14:30:18;;;;;;;19.42;12.60;;;;;;;;;;5102734;28;20198;-83
2023/06/28 14:32:46;;;;;;;17.25;12.80;;;;;;;;;;5095167;27;20275;-84
2023/06/28 14:35:13;;;;;;;18.98;12.88;;;;;;;;;;5095868;27;20188;-83